sensor_id;sensor_type;location;lat;lon;timestamp;pressure;altitude;pressure_sealevel;temperature;humidity
31681;BME280;18281;51.364;9.566;2023-03-01T05:25:01;101264.00;;;-6.63;100.00
31681;BME280;18281;51.364;9.566;2023-03-01T05:32:01;101268.94;;;-6.68;100.00
31681;BME280;18281;51.364;9.566;2023-03-01T05:34:33;101274.06;;;-6.68;100.00
31681;BME280;18281;51.364;9.566;2023-03-01T09:09:50;101152.31;;;0.56;100.00
31681;BME280;18281;51.364;9.566;2023-03-01T09:12:20;101160.09;;;0.59;100.00
31681;BME280;18281;51.364;9.566;2023-03-01T09:15:12;101155.81;;;0.68;100.00
31681;BME280;18281;51.364;9.566;2023-03-01T09:18:11;101145.53;;;0.84;100.00
31681;BME280;18281;51.364;9.566;2023-03-01T09:24:41;101143.06;;;1.10;100.00
31681;BME280;18281;51.364;9.566;2023-03-01T09:27:32;101135.28;;;1.13;100.00
31681;BME280;18281;51.364;9.566;2023-03-01T09:33:45;101151.72;;;1.45;100.00
31681;BME280;18281;51.364;9.566;2023-03-01T10:11:04;101124.44;;;3.14;90.60
31681;BME280;18281;51.364;9.566;2023-03-01T10:22:16;101101.88;;;3.26;93.03
31681;BME280;18281;51.364;9.566;2023-03-01T10:24:43;101100.94;;;3.33;90.54
31681;BME280;18281;51.364;9.566;2023-03-01T10:30:11;101090.59;;;3.30;89.08
31681;BME280;18281;51.364;9.566;2023-03-01T10:32:49;101088.78;;;3.46;94.22
31681;BME280;18281;51.364;9.566;2023-03-01T11:05:54;101052.81;;;4.61;83.85
31681;BME280;18281;51.364;9.566;2023-03-01T11:08:35;101056.94;;;4.76;82.79
31681;BME280;18281;51.364;9.566;2023-03-01T11:14:56;101044.50;;;4.97;84.32
31681;BME280;18281;51.364;9.566;2023-03-01T11:18:00;101043.28;;;5.18;81.83
31681;BME280;18281;51.364;9.566;2023-03-01T11:23:59;101034.44;;;5.28;83.41
31681;BME280;18281;51.364;9.566;2023-03-01T11:31:55;101038.56;;;5.43;78.11
31681;BME280;18281;51.364;9.566;2023-03-01T11:35:00;101028.69;;;5.62;79.38
31681;BME280;18281;51.364;9.566;2023-03-01T11:37:43;101026.63;;;5.78;79.34
31681;BME280;18281;51.364;9.566;2023-03-01T11:40:37;101028.28;;;5.84;79.09
31681;BME280;18281;51.364;9.566;2023-03-01T11:55:12;101016.44;;;5.66;70.84
31681;BME280;18281;51.364;9.566;2023-03-01T12:22:09;100995.59;;;5.66;63.21
31681;BME280;18281;51.364;9.566;2023-03-01T12:24:50;100988.63;;;5.68;62.41
31681;BME280;18281;51.364;9.566;2023-03-01T12:33:18;100978.44;;;5.54;62.06
31681;BME280;18281;51.364;9.566;2023-03-01T12:42:02;100964.06;;;5.80;61.79
31681;BME280;18281;51.364;9.566;2023-03-01T12:44:45;100964.41;;;5.63;60.80
31681;BME280;18281;51.364;9.566;2023-03-01T12:47:19;100954.69;;;5.71;63.21
31681;BME280;18281;51.364;9.566;2023-03-01T12:49:54;100950.25;;;5.76;61.42
31681;BME280;18281;51.364;9.566;2023-03-01T12:52:44;100950.09;;;5.84;61.82
31681;BME280;18281;51.364;9.566;2023-03-01T12:55:50;100943.25;;;5.78;59.73
31681;BME280;18281;51.364;9.566;2023-03-01T12:58:35;100936.44;;;5.71;59.78
31681;BME280;18281;51.364;9.566;2023-03-01T13:01:22;100933.03;;;5.69;60.24
31681;BME280;18281;51.364;9.566;2023-03-01T13:06:59;100928.69;;;5.68;59.32
31681;BME280;18281;51.364;9.566;2023-03-01T13:15:28;100924.84;;;5.44;58.48
31681;BME280;18281;51.364;9.566;2023-03-01T13:20:34;100918.91;;;5.35;57.02
31681;BME280;18281;51.364;9.566;2023-03-01T13:29:52;100907.25;;;5.55;57.49
31681;BME280;18281;51.364;9.566;2023-03-01T13:32:35;100916.84;;;5.51;57.67
31681;BME280;18281;51.364;9.566;2023-03-01T13:37:51;100905.06;;;5.32;56.97
31681;BME280;18281;51.364;9.566;2023-03-01T13:42:47;100894.69;;;5.29;58.12
31681;BME280;18281;51.364;9.566;2023-03-01T13:45:20;100884.28;;;5.29;57.53
31681;BME280;18281;51.364;9.566;2023-03-01T13:47:55;100898.31;;;5.21;56.90
31681;BME280;18281;51.364;9.566;2023-03-01T13:50:38;100888.44;;;4.92;56.51
31681;BME280;18281;51.364;9.566;2023-03-01T13:53:16;100877.84;;;5.01;57.71
31681;BME280;18281;51.364;9.566;2023-03-01T13:55:45;100878.88;;;4.94;57.02
31681;BME280;18281;51.364;9.566;2023-03-01T13:58:21;100878.88;;;4.94;58.59
31681;BME280;18281;51.364;9.566;2023-03-01T14:00:47;100876.44;;;4.85;57.96
31681;BME280;18281;51.364;9.566;2023-03-01T14:03:19;100864.41;;;4.78;57.85
31681;BME280;18281;51.364;9.566;2023-03-01T14:06:04;100864.72;;;4.61;57.92
31681;BME280;18281;51.364;9.566;2023-03-01T14:08:35;100867.25;;;4.64;58.71
31681;BME280;18281;51.364;9.566;2023-03-01T14:19:48;100861.00;;;4.21;58.67
31681;BME280;18281;51.364;9.566;2023-03-01T14:22:28;100865.44;;;4.14;59.51
31681;BME280;18281;51.364;9.566;2023-03-01T14:25:35;100857.66;;;4.13;60.62
31681;BME280;18281;51.364;9.566;2023-03-01T14:28:27;100851.66;;;4.08;60.11
31681;BME280;18281;51.364;9.566;2023-03-01T14:30:53;100851.06;;;3.90;59.75
31681;BME280;18281;51.364;9.566;2023-03-01T14:36:00;100847.53;;;3.94;59.50
31681;BME280;18281;51.364;9.566;2023-03-01T14:38:37;100851.84;;;3.97;60.19
31681;BME280;18281;51.364;9.566;2023-03-01T14:41:10;100841.50;;;3.94;60.31
31681;BME280;18281;51.364;9.566;2023-03-01T14:43:43;100848.72;;;3.71;61.32
31681;BME280;18281;51.364;9.566;2023-03-01T14:46:21;100840.84;;;3.78;61.30
31681;BME280;18281;51.364;9.566;2023-03-01T14:48:50;100838.41;;;3.64;61.89
31681;BME280;18281;51.364;9.566;2023-03-01T14:51:16;100842.66;;;3.72;61.00
31681;BME280;18281;51.364;9.566;2023-03-01T14:53:42;100837.56;;;3.65;62.78
31681;BME280;18281;51.364;9.566;2023-03-01T14:56:13;100841.91;;;3.63;62.08
31681;BME280;18281;51.364;9.566;2023-03-01T14:58:39;100841.00;;;3.67;61.50
31681;BME280;18281;51.364;9.566;2023-03-01T15:01:05;100835.88;;;3.61;61.50
31681;BME280;18281;51.364;9.566;2023-03-01T15:03:42;100835.06;;;3.59;61.41
31681;BME280;18281;51.364;9.566;2023-03-01T15:06:09;100835.19;;;3.49;61.33
31681;BME280;18281;51.364;9.566;2023-03-01T15:08:41;100834.34;;;3.41;61.93
31681;BME280;18281;51.364;9.566;2023-03-01T15:13:40;100837.88;;;3.37;62.35
31681;BME280;18281;51.364;9.566;2023-03-01T15:16:14;100830.91;;;3.41;62.14
31681;BME280;18281;51.364;9.566;2023-03-01T15:18:49;100843.00;;;3.42;62.52
31681;BME280;18281;51.364;9.566;2023-03-01T15:21:22;100833.56;;;3.36;61.94
31681;BME280;18281;51.364;9.566;2023-03-01T15:23:54;100830.97;;;3.36;62.67
31681;BME280;18281;51.364;9.566;2023-03-01T15:26:28;100844.88;;;3.29;62.48
31681;BME280;18281;51.364;9.566;2023-03-01T15:28:57;100843.09;;;3.34;63.06
31681;BME280;18281;51.364;9.566;2023-03-01T15:31:36;100850.94;;;3.28;63.40
31681;BME280;18281;51.364;9.566;2023-03-01T15:34:32;100845.75;;;3.31;62.70
31681;BME280;18281;51.364;9.566;2023-03-01T15:37:00;100840.56;;;3.28;62.56
31681;BME280;18281;51.364;9.566;2023-03-01T15:42:13;100839.78;;;3.21;63.58
31681;BME280;18281;51.364;9.566;2023-03-01T15:45:06;100838.16;;;3.85;76.71
31681;BME280;18281;51.364;9.566;2023-03-01T15:47:33;100834.75;;;4.38;81.35
31681;BME280;18281;51.364;9.566;2023-03-01T15:50:11;100832.59;;;4.63;78.92
31681;BME280;18281;51.364;9.566;2023-03-01T15:52:41;100827.97;;;4.78;78.86
31681;BME280;18281;51.364;9.566;2023-03-01T15:55:17;100824.97;;;4.52;75.00
31681;BME280;18281;51.364;9.566;2023-03-01T15:57:43;100825.44;;;4.21;71.19
31681;BME280;18281;51.364;9.566;2023-03-01T16:00:12;100817.97;;;4.01;68.70
31681;BME280;18281;51.364;9.566;2023-03-01T16:02:39;100817.38;;;3.84;66.50
31681;BME280;18281;51.364;9.566;2023-03-01T16:05:05;100822.72;;;3.73;65.97
31681;BME280;18281;51.364;9.566;2023-03-01T16:07:30;100807.19;;;3.70;65.29
31681;BME280;18281;51.364;9.566;2023-03-01T16:09:56;100816.00;;;3.58;65.02
31681;BME280;18281;51.364;9.566;2023-03-01T16:12:21;100815.31;;;3.45;65.06
31681;BME280;18281;51.364;9.566;2023-03-01T16:14:47;100809.31;;;3.38;65.03
31681;BME280;18281;51.364;9.566;2023-03-01T16:17:13;100812.06;;;3.25;64.85
31681;BME280;18281;51.364;9.566;2023-03-01T16:19:40;100808.69;;;3.18;65.40
31681;BME280;18281;51.364;9.566;2023-03-01T16:22:10;100807.81;;;3.19;64.16
31681;BME280;18281;51.364;9.566;2023-03-01T16:24:35;100815.63;;;3.14;65.07
31681;BME280;18281;51.364;9.566;2023-03-01T16:27:01;100813.09;;;3.11;65.01
31681;BME280;18281;51.364;9.566;2023-03-01T16:29:26;100820.16;;;3.00;65.02
31681;BME280;18281;51.364;9.566;2023-03-01T16:31:59;100821.03;;;2.99;65.53
31681;BME280;18281;51.364;9.566;2023-03-01T16:34:25;100826.97;;;3.07;65.48
31681;BME280;18281;51.364;9.566;2023-03-01T16:36:50;100821.84;;;3.04;65.92
31681;BME280;18281;51.364;9.566;2023-03-01T16:39:15;100820.97;;;3.02;65.95
31681;BME280;18281;51.364;9.566;2023-03-01T16:41:41;100828.63;;;3.16;67.31
31681;BME280;18281;51.364;9.566;2023-03-01T16:44:14;100813.75;;;3.29;68.73
31681;BME280;18281;51.364;9.566;2023-03-01T16:46:41;100821.63;;;3.22;69.03
31681;BME280;18281;51.364;9.566;2023-03-01T16:49:07;100814.84;;;3.09;67.96
31681;BME280;18281;51.364;9.566;2023-03-01T16:51:33;100814.16;;;2.95;66.17
31681;BME280;18281;51.364;9.566;2023-03-01T16:54:00;100817.69;;;2.86;66.05
31681;BME280;18281;51.364;9.566;2023-03-01T16:56:26;100822.69;;;3.04;68.43
31681;BME280;18281;51.364;9.566;2023-03-01T16:58:51;100832.97;;;3.14;69.82
31681;BME280;18281;51.364;9.566;2023-03-01T17:01:18;100839.94;;;3.09;69.38
31681;BME280;18281;51.364;9.566;2023-03-01T17:03:46;100846.13;;;2.95;68.40
31681;BME280;18281;51.364;9.566;2023-03-01T17:06:14;100849.72;;;2.80;67.74
31681;BME280;18281;51.364;9.566;2023-03-01T17:08:41;100850.69;;;2.70;66.25
31681;BME280;18281;51.364;9.566;2023-03-01T17:11:11;100855.06;;;2.63;64.66
31681;BME280;18281;51.364;9.566;2023-03-01T17:13:38;100846.53;;;2.53;64.78
31681;BME280;18281;51.364;9.566;2023-03-01T17:16:09;100849.16;;;2.47;65.74
31681;BME280;18281;51.364;9.566;2023-03-01T17:18:35;100843.19;;;2.42;65.70
31681;BME280;18281;51.364;9.566;2023-03-01T17:21:00;100843.22;;;2.36;66.16
31681;BME280;18281;51.364;9.566;2023-03-01T17:23:27;100844.13;;;2.30;66.74
31681;BME280;18281;51.364;9.566;2023-03-01T17:25:53;100849.31;;;2.30;66.47
31681;BME280;18281;51.364;9.566;2023-03-01T17:28:23;100845.00;;;2.25;66.08
31681;BME280;18281;51.364;9.566;2023-03-01T17:30:49;100847.69;;;2.12;66.22
31681;BME280;18281;51.364;9.566;2023-03-01T17:33:15;100852.88;;;2.14;65.92
31681;BME280;18281;51.364;9.566;2023-03-01T17:39:10;100860.78;;;1.97;65.41
31681;BME280;18281;51.364;9.566;2023-03-01T17:41:36;100864.25;;;1.90;65.20
31681;BME280;18281;51.364;9.566;2023-03-01T17:44:01;100863.41;;;1.84;66.08
31681;BME280;18281;51.364;9.566;2023-03-01T17:46:27;100866.06;;;1.78;65.99
31681;BME280;18281;51.364;9.566;2023-03-01T17:48:53;100863.47;;;1.78;65.76
31681;BME280;18281;51.364;9.566;2023-03-01T17:51:18;100877.31;;;1.73;65.18
31681;BME280;18281;51.364;9.566;2023-03-01T17:53:44;100873.84;;;1.70;66.39
31681;BME280;18281;51.364;9.566;2023-03-01T17:56:09;100867.47;;;2.26;73.46
31681;BME280;18281;51.364;9.566;2023-03-01T17:58:36;100860.25;;;3.49;87.33
31681;BME280;18281;51.364;9.566;2023-03-01T18:01:14;100855.16;;;3.38;81.76
31681;BME280;18281;51.364;9.566;2023-03-01T18:03:41;100852.97;;;3.04;75.11
31681;BME280;18281;51.364;9.566;2023-03-01T18:06:17;100861.13;;;2.64;72.11
31681;BME280;18281;51.364;9.566;2023-03-01T18:08:44;100848.34;;;2.44;70.07
31681;BME280;18281;51.364;9.566;2023-03-01T18:11:13;100867.50;;;2.22;71.09
31681;BME280;18281;51.364;9.566;2023-03-01T18:13:39;100862.41;;;2.07;69.36
31681;BME280;18281;51.364;9.566;2023-03-01T18:16:15;100858.13;;;2.01;69.82
31681;BME280;18281;51.364;9.566;2023-03-01T18:18:41;100865.13;;;1.88;69.98
31681;BME280;18281;51.364;9.566;2023-03-01T18:21:06;100870.34;;;1.82;69.38
31681;BME280;18281;51.364;9.566;2023-03-01T18:23:33;100862.56;;;1.78;69.80
31681;BME280;18281;51.364;9.566;2023-03-01T18:26:08;100869.53;;;1.69;70.45
31681;BME280;18281;51.364;9.566;2023-03-01T18:28:34;100873.03;;;1.58;69.28
31681;BME280;18281;51.364;9.566;2023-03-01T18:31:02;100867.03;;;1.52;69.56
31681;BME280;18281;51.364;9.566;2023-03-01T18:33:29;100865.31;;;1.47;69.49
31681;BME280;18281;51.364;9.566;2023-03-01T18:35:55;100874.88;;;1.34;69.10
31681;BME280;18281;51.364;9.566;2023-03-01T18:38:21;100865.34;;;1.37;69.28
31681;BME280;18281;51.364;9.566;2023-03-01T18:40:54;100867.09;;;1.29;69.20
31681;BME280;18281;51.364;9.566;2023-03-01T18:43:29;100864.56;;;1.17;68.62
31681;BME280;18281;51.364;9.566;2023-03-01T19:11:54;100858.59;;;0.59;71.19
31681;BME280;18281;51.364;9.566;2023-03-01T19:17:33;100861.16;;;0.42;71.38
31681;BME280;18281;51.364;9.566;2023-03-01T19:20:08;100862.06;;;0.43;72.13
31681;BME280;18281;51.364;9.566;2023-03-01T19:22:44;100859.47;;;0.36;72.48
31681;BME280;18281;51.364;9.566;2023-03-01T19:25:34;100863.78;;;0.36;73.65
31681;BME280;18281;51.364;9.566;2023-03-01T19:28:05;100868.91;;;0.31;73.50
31681;BME280;18281;51.364;9.566;2023-03-01T19:30:42;100863.75;;;0.24;73.68
31681;BME280;18281;51.364;9.566;2023-03-01T19:33:19;100864.59;;;0.18;74.10
31681;BME280;18281;51.364;9.566;2023-03-01T19:35:52;100865.47;;;0.12;74.30
31681;BME280;18281;51.364;9.566;2023-03-01T19:38:20;100865.47;;;0.11;74.55
31681;BME280;18281;51.364;9.566;2023-03-01T19:40:54;100867.16;;;0.06;75.05
31681;BME280;18281;51.364;9.566;2023-03-01T19:43:53;100868.88;;;0.02;75.53
31681;BME280;18281;51.364;9.566;2023-03-01T19:46:42;100867.16;;;-0.01;75.00
31681;BME280;18281;51.364;9.566;2023-03-01T19:49:24;100861.97;;;-0.11;75.67
31681;BME280;18281;51.364;9.566;2023-03-01T19:52:00;100870.56;;;-0.16;75.52
31681;BME280;18281;51.364;9.566;2023-03-01T19:54:26;100866.25;;;-0.20;75.69
31681;BME280;18281;51.364;9.566;2023-03-01T19:56:54;100868.81;;;-0.29;76.66
31681;BME280;18281;51.364;9.566;2023-03-01T19:59:35;100862.75;;;-0.36;77.03
31681;BME280;18281;51.364;9.566;2023-03-01T20:02:11;100867.91;;;-0.40;77.86
31681;BME280;18281;51.364;9.566;2023-03-01T20:04:37;100861.06;;;-0.35;77.93
31681;BME280;18281;51.364;9.566;2023-03-01T20:07:06;100855.88;;;-0.41;77.74
31681;BME280;18281;51.364;9.566;2023-03-01T20:09:32;100857.59;;;-0.42;77.90
31681;BME280;18281;51.364;9.566;2023-03-01T20:12:02;100859.25;;;-0.52;78.24
31681;BME280;18281;51.364;9.566;2023-03-01T20:14:31;100848.09;;;-0.52;78.89
31681;BME280;18281;51.364;9.566;2023-03-01T20:17:02;100847.19;;;-0.60;80.44
31681;BME280;18281;51.364;9.566;2023-03-01T20:19:30;100842.84;;;-0.69;81.04
31681;BME280;18281;51.364;9.566;2023-03-01T20:21:59;100849.69;;;-0.73;81.79
31681;BME280;18281;51.364;9.566;2023-03-01T20:24:27;100847.16;;;-0.71;81.90
31681;BME280;18281;51.364;9.566;2023-03-01T20:26:59;100849.69;;;-0.81;82.27
31681;BME280;18281;51.364;9.566;2023-03-01T20:29:28;100843.69;;;-0.76;81.93
31681;BME280;18281;51.364;9.566;2023-03-01T20:32:13;100848.84;;;-0.73;81.79
31681;BME280;18281;51.364;9.566;2023-03-01T20:34:45;100850.59;;;-0.72;81.16
31681;BME280;18281;51.364;9.566;2023-03-01T20:37:15;100843.66;;;-0.84;80.46
31681;BME280;18281;51.364;9.566;2023-03-01T20:39:41;100847.97;;;-0.77;81.13
31681;BME280;18281;51.364;9.566;2023-03-01T20:42:08;100848.81;;;-0.83;81.50
31681;BME280;18281;51.364;9.566;2023-03-01T20:44:40;100843.59;;;-0.97;82.37
31681;BME280;18281;51.364;9.566;2023-03-01T20:47:13;100852.16;;;-0.96;82.24
31681;BME280;18281;51.364;9.566;2023-03-01T20:49:44;100842.75;;;-0.92;82.77
31681;BME280;18281;51.364;9.566;2023-03-01T20:52:18;100841.84;;;-0.96;83.15
31681;BME280;18281;51.364;9.566;2023-03-01T20:54:52;100844.44;;;-1.01;83.24
31681;BME280;18281;51.364;9.566;2023-03-01T20:57:18;100840.06;;;-1.06;83.78
31681;BME280;18281;51.364;9.566;2023-03-01T20:59:44;100853.00;;;-1.05;83.88
31681;BME280;18281;51.364;9.566;2023-03-01T21:02:09;100857.25;;;-1.08;84.40
31681;BME280;18281;51.364;9.566;2023-03-01T21:04:35;100858.94;;;-1.10;83.82
31681;BME280;18281;51.364;9.566;2023-03-01T21:07:02;100859.78;;;-1.16;83.76
31681;BME280;18281;51.364;9.566;2023-03-01T21:09:28;100851.22;;;-1.12;83.19
31681;BME280;18281;51.364;9.566;2023-03-01T21:11:55;100853.84;;;-1.07;82.91
31681;BME280;18281;51.364;9.566;2023-03-01T21:14:20;100852.09;;;-1.11;83.44
31681;BME280;18281;51.364;9.566;2023-03-01T21:16:47;100844.38;;;-1.11;83.51
31681;BME280;18281;51.364;9.566;2023-03-01T21:19:13;100851.16;;;-1.23;85.15
31681;BME280;18281;51.364;9.566;2023-03-01T21:21:39;100852.88;;;-1.20;85.02
31681;BME280;18281;51.364;9.566;2023-03-01T21:24:14;100844.28;;;-1.22;85.38
31681;BME280;18281;51.364;9.566;2023-03-01T21:26:41;100845.13;;;-1.23;85.46
31681;BME280;18281;51.364;9.566;2023-03-01T21:29:16;100847.72;;;-1.23;85.41
31681;BME280;18281;51.364;9.566;2023-03-01T21:31:41;100844.25;;;-1.30;86.25
31681;BME280;18281;51.364;9.566;2023-03-01T21:34:07;100839.09;;;-1.28;86.01
31681;BME280;18281;51.364;9.566;2023-03-01T21:36:33;100832.22;;;-1.29;86.73
31681;BME280;18281;51.364;9.566;2023-03-01T21:39:01;100834.75;;;-1.34;86.73
31681;BME280;18281;51.364;9.566;2023-03-01T21:41:36;100834.75;;;-1.34;87.81
31681;BME280;18281;51.364;9.566;2023-03-01T21:44:10;100833.03;;;-1.35;87.46
31681;BME280;18281;51.364;9.566;2023-03-01T21:46:37;100829.59;;;-1.36;87.18
31681;BME280;18281;51.364;9.566;2023-03-01T21:49:09;100828.72;;;-1.41;87.50
31681;BME280;18281;51.364;9.566;2023-03-01T21:51:35;100832.13;;;-1.40;87.08
31681;BME280;18281;51.364;9.566;2023-03-01T21:54:01;100832.94;;;-1.48;87.95
31681;BME280;18281;51.364;9.566;2023-03-01T21:56:29;100829.50;;;-1.48;87.90
31681;BME280;18281;51.364;9.566;2023-03-01T21:59:20;100826.06;;;-1.52;87.36
31681;BME280;18281;51.364;9.566;2023-03-01T22:01:57;100827.75;;;-1.51;87.13
31681;BME280;18281;51.364;9.566;2023-03-01T22:04:23;100830.28;;;-1.58;87.52
31681;BME280;18281;51.364;9.566;2023-03-01T22:06:51;100827.69;;;-1.60;87.90
31681;BME280;18281;51.364;9.566;2023-03-01T22:09:20;100822.50;;;-1.69;87.92
31681;BME280;18281;51.364;9.566;2023-03-01T22:11:52;100814.81;;;-1.61;87.79
31681;BME280;18281;51.364;9.566;2023-03-01T22:14:32;100817.38;;;-1.63;87.52
31681;BME280;18281;51.364;9.566;2023-03-01T22:17:01;100823.34;;;-1.66;87.69
31681;BME280;18281;51.364;9.566;2023-03-01T22:19:29;100822.53;;;-1.60;87.07
31681;BME280;18281;51.364;9.566;2023-03-01T22:21:57;100825.91;;;-1.67;87.09
31681;BME280;18281;51.364;9.566;2023-03-01T22:24:24;100830.25;;;-1.63;86.94
31681;BME280;18281;51.364;9.566;2023-03-01T22:26:52;100827.66;;;-1.66;87.04
31681;BME280;18281;51.364;9.566;2023-03-01T22:29:28;100823.34;;;-1.67;87.29
31681;BME280;18281;51.364;9.566;2023-03-01T22:31:55;100828.47;;;-1.70;88.07
31681;BME280;18281;51.364;9.566;2023-03-01T22:34:24;100826.78;;;-1.67;88.09
31681;BME280;18281;51.364;9.566;2023-03-01T22:36:50;100833.59;;;-1.73;88.83
31681;BME280;18281;51.364;9.566;2023-03-01T22:39:17;100837.03;;;-1.76;89.06
31681;BME280;18281;51.364;9.566;2023-03-01T22:41:45;100834.41;;;-1.77;90.08
31681;BME280;18281;51.364;9.566;2023-03-01T22:44:13;100824.09;;;-1.79;89.78
31681;BME280;18281;51.364;9.566;2023-03-01T22:46:50;100828.41;;;-1.79;90.17
31681;BME280;18281;51.364;9.566;2023-03-01T22:49:26;100818.94;;;-1.81;90.80
31681;BME280;18281;51.364;9.566;2023-03-01T22:51:56;100817.19;;;-1.88;91.82
31681;BME280;18281;51.364;9.566;2023-03-01T22:54:33;100817.13;;;-1.92;92.62
31681;BME280;18281;51.364;9.566;2023-03-01T22:56:59;100814.56;;;-1.91;91.67
31681;BME280;18281;51.364;9.566;2023-03-01T22:59:57;100816.22;;;-1.98;92.12
31681;BME280;18281;51.364;9.566;2023-03-01T23:02:49;100817.91;;;-2.01;92.58
31681;BME280;18281;51.364;9.566;2023-03-01T23:05:26;100813.59;;;-2.02;92.73
31681;BME280;18281;51.364;9.566;2023-03-01T23:08:12;100816.16;;;-2.04;92.11
31681;BME280;18281;51.364;9.566;2023-03-01T23:10:44;100808.34;;;-2.16;92.88
31681;BME280;18281;51.364;9.566;2023-03-01T23:13:13;100809.19;;;-2.14;92.81
31681;BME280;18281;51.364;9.566;2023-03-01T23:15:41;100811.75;;;-2.17;92.53
31681;BME280;18281;51.364;9.566;2023-03-01T23:18:10;100807.47;;;-2.17;92.40
31681;BME280;18281;51.364;9.566;2023-03-01T23:20:38;100809.94;;;-2.26;92.32
31681;BME280;18281;51.364;9.566;2023-03-01T23:23:09;100806.53;;;-2.25;91.65
31681;BME280;18281;51.364;9.566;2023-03-01T23:25:58;100808.19;;;-2.30;91.60
31681;BME280;18281;51.364;9.566;2023-03-01T23:28:33;100813.31;;;-2.33;91.93
31681;BME280;18281;51.364;9.566;2023-03-01T23:31:03;100814.13;;;-2.36;92.49
31681;BME280;18281;51.364;9.566;2023-03-01T23:33:30;100816.69;;;-2.37;92.22
31681;BME280;18281;51.364;9.566;2023-03-01T23:36:26;100815.81;;;-2.38;92.38
31681;BME280;18281;51.364;9.566;2023-03-01T23:39:00;100814.06;;;-2.42;92.01
31681;BME280;18281;51.364;9.566;2023-03-01T23:41:29;100817.50;;;-2.41;91.98
31681;BME280;18281;51.364;9.566;2023-03-01T23:43:59;100819.09;;;-2.50;92.58
31681;BME280;18281;51.364;9.566;2023-03-01T23:46:33;100820.78;;;-2.55;93.25
31681;BME280;18281;51.364;9.566;2023-03-01T23:48:59;100818.25;;;-2.52;93.76
31681;BME280;18281;51.364;9.566;2023-03-01T23:51:25;100819.97;;;-2.52;94.00
31681;BME280;18281;51.364;9.566;2023-03-01T23:53:59;100816.50;;;-2.51;93.53
31681;BME280;18281;51.364;9.566;2023-03-01T23:57:03;100820.69;;;-2.61;95.13
31681;BME280;18281;51.364;9.566;2023-03-01T23:59:22;100817.22;;;-2.66;95.54
